Aviation Digital Data Service (ADDS)

Output produced by METARs form (1815 UTC 21 September 2019)
found at http://aviationweather.gov/metar/data/
 
KCLL 211720Z 2118/2218 15012KT P6SM FEW030 
     FM212000 14011G20KT P6SM SCT040 BKN100 
     FM220100 14008KT P6SM SCT030 BKN250 
     FM221200 14005KT P6SM BKN018 
     FM221500 17009KT P6SM BKN020